Time;durP1;ratioP1;P1;durP2;ratioP2;P2;SDS_P1;SDS_P2;PMS_P1;PMS_P2;Temp;Humidity;BMP_temperature;BMP_pressure;BME280_temperature;BME280_humidity;BME280_pressure;Samples;Min_cycle;Max_cycle;Signal;HPM_P1;HPM_P2
2022/10/28 00:00:49;;;;;;;;;;;16.10;94.60;;;;;;5037337;28;19929;-68
2022/10/28 00:03:16;;;;;;;;;;;16.00;94.50;;;;;;5039061;28;19928;-68
2022/10/28 00:05:44;;;;;;;;;;;16.00;94.60;;;;;;5042928;28;19932;-67
2022/10/28 00:08:11;;;;;;;;;;;16.00;94.60;;;;;;5044010;28;20610;-70
2022/10/28 00:10:38;;;;;;;;;;;16.00;94.60;;;;;;5042560;28;20043;-68
2022/10/28 00:13:04;;;;;;;;;;;16.00;94.60;;;;;;5039844;28;20340;-68
2022/10/28 00:15:33;;;;;;;;;;;16.00;94.60;;;;;;5038702;28;19929;-69
2022/10/28 00:17:59;;;;;;;;;;;16.00;94.60;;;;;;5038583;28;19929;-68
2022/10/28 00:20:26;;;;;;;;;;;16.00;94.60;;;;;;5033683;28;19936;-68
2022/10/28 00:22:54;;;;;;;;;;;16.00;94.60;;;;;;5042522;28;19932;-68
2022/10/28 00:25:23;;;;;;;;;;;15.90;94.60;;;;;;5039728;28;19936;-68
2022/10/28 00:27:50;;;;;;;;;;;16.00;94.70;;;;;;5039303;28;19929;-69
2022/10/28 00:30:17;;;;;;;;;;;15.90;94.60;;;;;;5043837;28;19929;-68
2022/10/28 00:32:43;;;;;;;;;;;15.90;94.60;;;;;;5038944;28;19929;-68
2022/10/28 00:35:10;;;;;;;;;;;15.90;94.70;;;;;;5044329;28;19929;-67
2022/10/28 00:37:36;;;;;;;;;;;15.90;94.70;;;;;;5041028;28;19929;-68
2022/10/28 00:40:05;;;;;;;;;;;15.90;94.70;;;;;;5041594;28;19933;-68
2022/10/28 00:42:32;;;;;;;;;;;15.90;94.70;;;;;;5038301;28;19936;-69
2022/10/28 00:44:59;;;;;;;;;;;15.90;94.70;;;;;;5040231;28;19932;-68
2022/10/28 00:47:41;;;;;;;;;;;15.80;94.70;;;;;;5043643;28;19925;-69
2022/10/28 00:50:14;;;;;;;;;;;15.90;94.80;;;;;;5039583;28;19929;-68
2022/10/28 00:52:41;;;;;;;;;;;15.80;94.70;;;;;;5035807;28;19926;-68
2022/10/28 00:55:10;;;;;;;;;;;15.80;94.70;;;;;;5039865;28;19935;-68
2022/10/28 00:57:37;;;;;;;;;;;15.80;94.80;;;;;;5036726;28;19933;-68
2022/10/28 01:00:05;;;;;;;;;;;15.80;94.80;;;;;;5041596;28;19933;-67
2022/10/28 01:02:33;;;;;;;;;;;15.80;94.80;;;;;;5032228;28;19936;-69
2022/10/28 01:05:00;;;;;;;;;;;15.80;94.80;;;;;;5033729;28;19929;-68
2022/10/28 01:07:26;;;;;;;;;;;15.80;94.80;;;;;;5036193;28;19928;-68
2022/10/28 01:09:53;;;;;;;;;;;15.80;94.80;;;;;;5040409;28;19936;-69
2022/10/28 01:12:27;;;;;;;;;;;15.80;94.80;;;;;;5035321;28;19929;-70
2022/10/28 01:15:00;;;;;;;;;;;15.80;94.80;;;;;;5036964;28;20304;-68
2022/10/28 01:17:35;;;;;;;;;;;15.80;94.80;;;;;;5041239;28;19932;-68
2022/10/28 01:20:18;;;;;;;;;;;15.80;94.90;;;;;;5040437;28;19940;-68
2022/10/28 01:22:47;;;;;;;;;;;15.70;94.80;;;;;;5038384;28;19929;-68
2022/10/28 01:25:35;;;;;;;;;;;15.80;94.90;;;;;;5041868;28;20416;-68
2022/10/28 01:28:22;;;;;;;;;;;15.70;94.80;;;;;;5031452;28;21055;-68
2022/10/28 01:31:07;;;;;;;;;;;15.80;94.90;;;;;;5038127;28;20423;-69
2022/10/28 01:33:36;;;;;;;;;;;15.80;94.90;;;;;;5044326;28;19933;-68
2022/10/28 01:36:06;;;;;;;;;;;15.70;94.90;;;;;;5037598;28;19928;-68
2022/10/28 01:38:35;;;;;;;;;;;15.70;94.90;;;;;;5047436;28;19932;-69
2022/10/28 01:41:05;;;;;;;;;;;15.70;94.90;;;;;;5041041;28;19939;-69
2022/10/28 01:43:33;;;;;;;;;;;15.70;94.90;;;;;;5046487;28;20389;-68
2022/10/28 01:46:02;;;;;;;;;;;15.70;94.90;;;;;;5037656;28;19928;-68
2022/10/28 01:48:31;;;;;;;;;;;15.70;94.90;;;;;;5043504;28;19928;-68
2022/10/28 01:51:00;;;;;;;;;;;15.70;94.90;;;;;;5038811;28;19933;-67
2022/10/28 01:53:29;;;;;;;;;;;15.70;94.90;;;;;;5045978;28;19936;-68
2022/10/28 01:55:58;;;;;;;;;;;15.70;94.90;;;;;;5039922;28;19945;-68
2022/10/28 01:58:27;;;;;;;;;;;15.70;94.90;;;;;;5038319;28;20400;-68
2022/10/28 02:00:54;;;;;;;;;;;15.70;94.90;;;;;;5038402;28;19939;-68
2022/10/28 02:03:20;;;;;;;;;;;15.70;94.80;;;;;;5036126;28;20378;-67
2022/10/28 02:05:48;;;;;;;;;;;15.60;94.80;;;;;;5041472;28;20367;-69
2022/10/28 02:08:30;;;;;;;;;;;15.70;94.90;;;;;;5046734;28;20305;-68
2022/10/28 02:11:01;;;;;;;;;;;15.60;94.80;;;;;;5043207;28;19956;-68
2022/10/28 02:13:31;;;;;;;;;;;15.60;94.80;;;;;;5039364;28;19936;-67
2022/10/28 02:16:02;;;;;;;;;;;15.60;94.90;;;;;;5042566;28;19940;-68
2022/10/28 02:18:32;;;;;;;;;;;15.60;94.90;;;;;;5044144;28;19967;-69
2022/10/28 02:20:59;;;;;;;;;;;15.60;94.90;;;;;;5045050;28;19967;-67
2022/10/28 02:23:33;;;;;;;;;;;15.60;94.90;;;;;;5042133;28;20336;-69
2022/10/28 02:26:03;;;;;;;;;;;15.60;94.90;;;;;;5045459;28;20412;-67
2022/10/28 02:28:37;;;;;;;;;;;15.60;94.90;;;;;;5041883;28;19928;-69
2022/10/28 02:31:06;;;;;;;;;;;15.60;94.90;;;;;;5045908;28;19960;-68
2022/10/28 02:33:35;;;;;;;;;;;15.60;94.90;;;;;;5041703;28;19928;-68
2022/10/28 02:36:04;;;;;;;;;;;15.60;94.90;;;;;;5042412;28;19943;-68
2022/10/28 02:38:33;;;;;;;;;;;15.50;94.90;;;;;;5045957;28;19936;-67
2022/10/28 02:41:02;;;;;;;;;;;15.60;94.90;;;;;;5044502;28;19936;-68
2022/10/28 02:43:29;;;;;;;;;;;15.60;94.90;;;;;;5042064;28;19929;-69
2022/10/28 02:45:57;;;;;;;;;;;15.60;94.90;;;;;;5042670;28;19935;-67
2022/10/28 02:48:26;;;;;;;;;;;15.50;94.90;;;;;;5039443;28;19940;-68
2022/10/28 02:50:55;;;;;;;;;;;15.50;94.90;;;;;;5044245;28;19928;-69
2022/10/28 02:53:24;;;;;;;;;;;15.50;94.90;;;;;;5039630;28;19936;-68
2022/10/28 02:55:53;;;;;;;;;;;15.50;95.00;;;;;;5034591;28;19929;-68
2022/10/28 02:58:20;;;;;;;;;;;15.50;95.00;;;;;;5041049;28;19935;-69
2022/10/28 03:00:48;;;;;;;;;;;15.50;95.00;;;;;;5042092;28;19935;-67
2022/10/28 03:03:15;;;;;;;;;;;15.50;95.00;;;;;;5040078;28;20307;-67
2022/10/28 03:05:41;;;;;;;;;;;15.50;95.00;;;;;;5042785;28;19951;-69
2022/10/28 03:08:08;;;;;;;;;;;15.50;95.00;;;;;;5045841;28;20615;-69
2022/10/28 03:10:34;;;;;;;;;;;15.50;95.00;;;;;;5041871;28;20352;-69
2022/10/28 03:13:02;;;;;;;;;;;15.50;95.00;;;;;;5033405;28;20260;-68
2022/10/28 03:15:29;;;;;;;;;;;15.50;95.00;;;;;;5037917;28;19948;-69
2022/10/28 03:17:55;;;;;;;;;;;15.50;95.00;;;;;;5033055;28;19935;-67
2022/10/28 03:20:22;;;;;;;;;;;15.50;95.00;;;;;;5033387;28;19936;-68
2022/10/28 03:22:48;;;;;;;;;;;15.50;95.00;;;;;;5031756;28;19929;-68
2022/10/28 03:25:15;;;;;;;;;;;15.50;95.00;;;;;;5042811;28;19936;-67
2022/10/28 03:27:41;;;;;;;;;;;15.40;95.00;;;;;;5040304;28;19929;-70
2022/10/28 03:30:10;;;;;;;;;;;15.40;95.00;;;;;;5043656;28;19933;-68
2022/10/28 03:32:37;;;;;;;;;;;15.40;95.10;;;;;;5044091;28;19935;-68
2022/10/28 03:35:03;;;;;;;;;;;15.40;95.10;;;;;;5036618;28;19929;-67
2022/10/28 03:37:30;;;;;;;;;;;15.40;95.10;;;;;;5040912;28;19935;-69
2022/10/28 03:40:00;;;;;;;;;;;15.40;95.10;;;;;;5035015;28;19929;-68
2022/10/28 03:42:26;;;;;;;;;;;15.40;95.10;;;;;;5041875;28;19971;-67
2022/10/28 03:44:53;;;;;;;;;;;15.40;95.10;;;;;;5032097;28;19929;-68
2022/10/28 03:47:21;;;;;;;;;;;15.40;95.10;;;;;;5044048;28;19932;-68
2022/10/28 03:49:47;;;;;;;;;;;15.40;95.10;;;;;;5042357;28;20468;-68
2022/10/28 03:52:14;;;;;;;;;;;15.40;95.10;;;;;;5043206;28;20393;-68
2022/10/28 03:54:40;;;;;;;;;;;15.40;95.10;;;;;;5037901;28;19937;-69
2022/10/28 03:57:07;;;;;;;;;;;15.40;95.10;;;;;;5038582;28;19936;-68
2022/10/28 03:59:33;;;;;;;;;;;15.40;95.10;;;;;;5035794;28;19929;-68
2022/10/28 04:02:00;;;;;;;;;;;15.40;95.10;;;;;;5042218;28;21204;-69
2022/10/28 04:04:28;;;;;;;;;;;15.40;95.20;;;;;;5040613;28;19933;-68
2022/10/28 04:06:54;;;;;;;;;;;15.40;95.10;;;;;;5043159;28;20590;-68
2022/10/28 04:09:21;;;;;;;;;;;15.40;95.20;;;;;;5038627;28;20975;-69
2022/10/28 04:11:48;;;;;;;;;;;15.40;95.20;;;;;;5043542;28;20622;-67
2022/10/28 04:14:14;;;;;;;;;;;15.40;95.20;;;;;;5037382;28;19981;-68
2022/10/28 04:16:41;;;;;;;;;;;15.40;95.20;;;;;;5039506;28;19929;-69
2022/10/28 04:19:07;;;;;;;;;;;15.40;95.20;;;;;;5043043;28;20404;-68
2022/10/28 04:21:35;;;;;;;;;;;15.40;95.20;;;;;;5041353;28;20589;-68
2022/10/28 04:24:02;;;;;;;;;;;15.40;95.20;;;;;;5040351;28;20413;-68
2022/10/28 04:26:30;;;;;;;;;;;15.40;95.20;;;;;;5039420;28;19929;-68
2022/10/28 04:28:57;;;;;;;;;;;15.30;95.20;;;;;;5037379;28;19936;-68
2022/10/28 04:31:23;;;;;;;;;;;15.30;95.20;;;;;;5040906;28;19928;-69
2022/10/28 04:33:50;;;;;;;;;;;15.30;95.20;;;;;;5039444;28;19932;-68
2022/10/28 04:36:16;;;;;;;;;;;15.30;95.20;;;;;;5041242;28;19936;-67
2022/10/28 04:38:44;;;;;;;;;;;15.30;95.20;;;;;;5041989;28;19929;-67
2022/10/28 04:41:12;;;;;;;;;;;15.30;95.20;;;;;;5040789;28;19936;-68
2022/10/28 04:43:38;;;;;;;;;;;15.30;95.20;;;;;;5040928;28;19928;-68
2022/10/28 04:46:05;;;;;;;;;;;15.30;95.20;;;;;;5038076;28;19929;-67
2022/10/28 04:48:32;;;;;;;;;;;15.30;95.20;;;;;;5037022;28;19929;-70
2022/10/28 04:50:58;;;;;;;;;;;15.30;95.20;;;;;;5035221;28;20415;-69
2022/10/28 04:53:25;;;;;;;;;;;15.20;95.20;;;;;;5041053;28;19928;-70
2022/10/28 04:55:56;;;;;;;;;;;15.30;95.20;;;;;;5041330;28;19932;-66
2022/10/28 04:58:22;;;;;;;;;;;15.20;95.20;;;;;;5041105;28;19929;-66
2022/10/28 05:00:49;;;;;;;;;;;15.20;95.20;;;;;;5034709;28;20562;-69
2022/10/28 05:03:15;;;;;;;;;;;15.20;94.70;;;;;;5039008;28;19929;-67
2022/10/28 05:05:42;;;;;;;;;;;15.20;94.80;;;;;;5041706;28;20052;-66
2022/10/28 05:08:08;;;;;;;;;;;15.20;94.90;;;;;;5043115;28;19928;-67
2022/10/28 05:10:35;;;;;;;;;;;15.10;94.90;;;;;;5041668;28;19929;-67
2022/10/28 05:13:03;;;;;;;;;;;15.10;94.90;;;;;;5040426;28;19937;-67
2022/10/28 05:15:30;;;;;;;;;;;15.10;95.00;;;;;;5037456;28;19938;-67
2022/10/28 05:17:56;;;;;;;;;;;15.10;95.00;;;;;;5045983;28;19976;-67
2022/10/28 05:20:23;;;;;;;;;;;15.20;95.10;;;;;;5042535;28;20272;-68
2022/10/28 05:22:51;;;;;;;;;;;15.10;95.10;;;;;;5045915;28;19929;-67
2022/10/28 05:25:18;;;;;;;;;;;15.00;95.10;;;;;;5044462;28;19932;-68
2022/10/28 05:27:44;;;;;;;;;;;15.10;95.10;;;;;;5041083;28;19929;-66
2022/10/28 05:30:13;;;;;;;;;;;15.10;95.10;;;;;;5039534;28;19939;-69
2022/10/28 05:32:40;;;;;;;;;;;15.10;95.10;;;;;;5044334;28;19929;-68
2022/10/28 05:35:07;;;;;;;;;;;15.10;95.10;;;;;;5037072;28;19940;-69
2022/10/28 05:37:33;;;;;;;;;;;15.10;95.50;;;;;;5044084;28;20339;-67
2022/10/28 05:40:00;;;;;;;;;;;15.00;95.10;;;;;;5040287;28;19936;-69
2022/10/28 05:42:26;;;;;;;;;;;15.00;95.20;;;;;;5040740;28;19939;-67
2022/10/28 05:44:53;;;;;;;;;;;15.00;95.20;;;;;;5040000;28;19928;-69
2022/10/28 05:47:21;;;;;;;;;;;15.00;95.20;;;;;;5043339;28;19928;-67
2022/10/28 05:49:47;;;;;;;;;;;15.00;95.20;;;;;;5038343;28;19929;-67
2022/10/28 05:52:14;;;;;;;;;;;14.90;95.20;;;;;;5041897;28;19936;-66
2022/10/28 05:54:40;;;;;;;;;;;15.00;95.20;;;;;;5041813;28;19928;-67
2022/10/28 05:57:07;;;;;;;;;;;14.90;95.20;;;;;;5040285;28;19962;-67
2022/10/28 05:59:33;;;;;;;;;;;14.90;95.20;;;;;;5038284;28;19936;-68
2022/10/28 06:02:00;;;;;;;;;;;14.90;95.20;;;;;;5043727;28;19929;-67
2022/10/28 06:04:28;;;;;;;;;;;14.90;95.20;;;;;;5038670;28;19952;-68
2022/10/28 06:06:55;;;;;;;;;;;14.90;95.30;;;;;;5039127;28;19931;-69
2022/10/28 06:09:22;;;;;;;;;;;14.90;95.30;;;;;;5046170;28;19987;-68
2022/10/28 06:11:48;;;;;;;;;;;14.80;95.20;;;;;;5035989;28;19925;-69
2022/10/28 06:14:15;;;;;;;;;;;14.90;95.30;;;;;;5043985;28;19932;-67
2022/10/28 06:16:42;;;;;;;;;;;14.80;95.20;;;;;;5038948;28;19925;-67
2022/10/28 06:19:09;;;;;;;;;;;14.80;95.20;;;;;;5042731;28;19925;-67
2022/10/28 06:21:37;;;;;;;;;;;14.80;95.20;;;;;;5041589;28;19932;-69
2022/10/28 06:24:03;;;;;;;;;;;14.70;95.20;;;;;;5041330;28;19933;-67
2022/10/28 06:26:30;;;;;;;;;;;14.80;95.20;;;;;;5042116;28;19925;-67
2022/10/28 06:28:56;;;;;;;;;;;14.70;95.20;;;;;;5042283;28;19932;-68
2022/10/28 06:31:23;;;;;;;;;;;14.70;95.20;;;;;;5042527;28;20464;-74
2022/10/28 06:33:50;;;;;;;;;;;14.70;95.20;;;;;;5044444;28;19929;-74
2022/10/28 06:36:16;;;;;;;;;;;14.70;95.20;;;;;;5042000;28;20153;-74
2022/10/28 06:38:44;;;;;;;;;;;14.70;95.20;;;;;;5044065;28;20424;-71
2022/10/28 06:41:11;;;;;;;;;;;14.70;95.30;;;;;;5041295;28;19929;-74
2022/10/28 06:43:37;;;;;;;;;;;14.60;95.30;;;;;;5040605;28;19940;-74
2022/10/28 06:46:04;;;;;;;;;;;14.60;95.30;;;;;;5041563;28;19936;-74
2022/10/28 06:48:31;;;;;;;;;;;14.60;95.30;;;;;;5041440;28;20545;-74
2022/10/28 06:50:58;;;;;;;;;;;14.60;95.40;;;;;;5039950;28;20616;-73
2022/10/28 06:53:24;;;;;;;;;;;14.60;95.40;;;;;;5045602;28;19974;-74
2022/10/28 06:55:53;;;;;;;;;;;14.60;95.40;;;;;;5033291;28;20381;-74
2022/10/28 06:58:20;;;;;;;;;;;14.60;95.50;;;;;;5041820;28;19928;-74
2022/10/28 07:00:46;;;;;;;;;;;14.60;95.50;;;;;;5037523;28;19969;-75
2022/10/28 07:03:13;;;;;;;;;;;14.60;95.50;;;;;;5040050;28;19928;-75
2022/10/28 07:05:40;;;;;;;;;;;14.60;95.50;;;;;;5036376;28;19936;-75
2022/10/28 07:08:06;;;;;;;;;;;14.60;95.50;;;;;;5041899;28;20154;-75
2022/10/28 07:10:33;;;;;;;;;;;14.60;95.50;;;;;;5043265;28;19928;-74
2022/10/28 07:13:01;;;;;;;;;;;14.60;95.50;;;;;;5039151;28;19937;-75
2022/10/28 07:15:27;;;;;;;;;;;14.60;95.50;;;;;;5041651;28;19939;-72
2022/10/28 07:17:54;;;;;;;;;;;14.60;95.50;;;;;;5044181;28;19936;-74
2022/10/28 07:20:21;;;;;;;;;;;14.60;95.50;;;;;;5042530;28;20396;-75
2022/10/28 07:22:47;;;;;;;;;;;14.60;95.60;;;;;;5036551;28;19929;-75
2022/10/28 07:25:14;;;;;;;;;;;14.60;95.60;;;;;;5039013;28;19928;-75
2022/10/28 07:27:41;;;;;;;;;;;14.60;95.60;;;;;;5041467;28;19943;-75
2022/10/28 07:30:10;;;;;;;;;;;14.60;95.60;;;;;;5036568;28;19933;-75
2022/10/28 07:32:36;;;;;;;;;;;14.60;95.60;;;;;;5040772;28;20411;-75
2022/10/28 07:35:03;;;;;;;;;;;14.60;95.60;;;;;;5041003;28;19949;-75
2022/10/28 07:37:29;;;;;;;;;;;14.60;95.60;;;;;;5032777;28;19928;-72
2022/10/28 07:39:56;;;;;;;;;;;14.60;95.60;;;;;;5039767;28;19928;-75
2022/10/28 07:42:23;;;;;;;;;;;14.60;95.60;;;;;;5038152;28;19929;-74
2022/10/28 07:44:49;;;;;;;;;;;14.60;95.60;;;;;;5038690;28;20289;-74
2022/10/28 07:47:18;;;;;;;;;;;14.60;95.60;;;;;;5041461;28;19951;-75
2022/10/28 07:49:45;;;;;;;;;;;14.60;95.70;;;;;;5042211;28;19928;-75
2022/10/28 07:52:11;;;;;;;;;;;14.60;95.70;;;;;;5040250;28;19936;-74
2022/10/28 07:54:38;;;;;;;;;;;14.60;95.70;;;;;;5039300;28;19941;-75
2022/10/28 07:57:04;;;;;;;;;;;14.60;95.80;;;;;;5041860;28;20393;-74
2022/10/28 07:59:31;;;;;;;;;;;14.60;95.80;;;;;;5040421;28;20168;-71
2022/10/28 08:01:57;;;;;;;;;;;14.60;95.80;;;;;;5041713;28;19933;-75
2022/10/28 08:04:25;;;;;;;;;;;14.60;95.90;;;;;;5038317;28;19936;-75
2022/10/28 08:06:52;;;;;;;;;;;14.60;95.90;;;;;;5039761;28;19936;-75
2022/10/28 08:09:18;;;;;;;;;;;14.60;95.90;;;;;;5041906;28;19935;-75
2022/10/28 08:11:45;;;;;;;;;;;14.60;96.00;;;;;;5043486;28;19929;-74
2022/10/28 08:14:11;;;;;;;;;;;14.60;96.00;;;;;;5040049;28;19929;-74
2022/10/28 08:16:38;;;;;;;;;;;14.60;96.00;;;;;;5040190;28;19939;-74
2022/10/28 08:19:04;;;;;;;;;;;14.60;96.00;;;;;;5039956;28;19929;-75
2022/10/28 08:21:32;;;;;;;;;;;14.60;96.00;;;;;;5039793;28;19935;-72
2022/10/28 08:23:59;;;;;;;;;;;14.60;96.00;;;;;;5040791;28;20404;-74
2022/10/28 08:26:25;;;;;;;;;;;14.60;96.10;;;;;;5034783;28;19952;-75
2022/10/28 08:28:52;;;;;;;;;;;14.60;96.10;;;;;;5038376;28;19929;-74
2022/10/28 08:31:19;;;;;;;;;;;14.60;96.10;;;;;;5041850;28;19931;-75
2022/10/28 08:33:45;;;;;;;;;;;14.60;96.10;;;;;;5038738;28;19940;-74
2022/10/28 08:36:13;;;;;;;;;;;14.60;96.10;;;;;;5041300;28;19929;-75
2022/10/28 08:38:42;;;;;;;;;;;14.60;96.10;;;;;;5043448;28;19936;-75
2022/10/28 08:41:14;;;;;;;;;;;14.60;96.20;;;;;;5039614;28;19936;-75
2022/10/28 08:43:47;;;;;;;;;;;14.60;96.20;;;;;;5043484;28;19933;-75
2022/10/28 08:46:19;;;;;;;;;;;14.60;96.20;;;;;;5045354;28;20304;-73
2022/10/28 08:48:45;;;;;;;;;;;14.70;96.30;;;;;;5046428;28;19929;-74
2022/10/28 08:51:14;;;;;;;;;;;14.60;96.30;;;;;;5043711;28;19929;-75
2022/10/28 08:53:45;;;;;;;;;;;14.60;96.30;;;;;;5044327;28;19929;-75
2022/10/28 08:56:14;;;;;;;;;;;14.70;96.50;;;;;;5044842;28;19929;-75
2022/10/28 08:58:42;;;;;;;;;;;14.70;96.60;;;;;;5039839;28;19936;-75
2022/10/28 09:01:13;;;;;;;;;;;14.70;96.60;;;;;;5045183;28;20548;-75
2022/10/28 09:03:41;;;;;;;;;;;14.70;96.70;;;;;;5044863;28;19928;-75
2022/10/28 09:06:09;;;;;;;;;;;14.70;96.70;;;;;;5045719;28;19935;-75
2022/10/28 09:08:36;;;;;;;;;;;14.70;96.60;;;;;;5044889;28;20526;-75
2022/10/28 09:11:13;;;;;;;;;;;14.70;96.50;;;;;;5041515;28;19933;-74
2022/10/28 09:13:53;;;;;;;;;;;14.70;96.50;;;;;;5041390;28;19935;-75
2022/10/28 09:16:26;;;;;;;;;;;14.80;96.40;;;;;;5041363;28;19928;-74
2022/10/28 09:18:54;;;;;;;;;;;14.70;96.30;;;;;;5044015;28;20018;-75
2022/10/28 09:21:24;;;;;;;;;;;14.80;96.30;;;;;;5043793;28;19936;-75
2022/10/28 09:23:54;;;;;;;;;;;14.80;96.30;;;;;;5043949;28;20019;-75
2022/10/28 09:26:26;;;;;;;;;;;14.80;96.30;;;;;;5043156;28;19929;-75
2022/10/28 09:28:58;;;;;;;;;;;14.80;96.30;;;;;;5041473;28;20019;-74
2022/10/28 09:31:29;;;;;;;;;;;14.80;96.30;;;;;;5043186;28;20681;-75
2022/10/28 09:34:02;;;;;;;;;;;14.80;96.30;;;;;;5045165;28;19936;-75
2022/10/28 09:36:32;;;;;;;;;;;14.90;96.30;;;;;;5049093;28;20452;-76
2022/10/28 09:39:00;;;;;;;;;;;14.90;96.20;;;;;;5045010;28;19932;-75
2022/10/28 09:41:30;;;;;;;;;;;14.90;96.20;;;;;;5045137;28;19933;-75
2022/10/28 09:43:59;;;;;;;;;;;14.90;96.10;;;;;;5038189;28;19940;-74
2022/10/28 09:46:27;;;;;;;;;;;14.90;96.10;;;;;;5040600;28;20268;-74
2022/10/28 09:48:56;;;;;;;;;;;14.90;96.10;;;;;;5044201;28;19929;-74
2022/10/28 09:51:28;;;;;;;;;;;14.90;96.10;;;;;;5043937;28;19935;-74
2022/10/28 09:53:56;;;;;;;;;;;14.90;96.10;;;;;;5045300;28;19932;-74
2022/10/28 09:56:23;;;;;;;;;;;15.00;96.20;;;;;;5046320;28;19929;-73
2022/10/28 09:58:52;;;;;;;;;;;15.00;96.20;;;;;;5039626;28;20472;-74
2022/10/28 10:01:19;;;;;;;;;;;15.00;96.10;;;;;;5045127;28;19933;-74
2022/10/28 10:03:47;;;;;;;;;;;15.00;96.10;;;;;;5043259;28;19929;-74
2022/10/28 10:06:16;;;;;;;;;;;15.00;96.00;;;;;;5039386;28;19929;-74
2022/10/28 10:08:44;;;;;;;;;;;15.00;96.00;;;;;;5041081;28;19936;-71
2022/10/28 10:11:13;;;;;;;;;;;15.10;96.00;;;;;;5036798;28;19983;-75
2022/10/28 10:13:42;;;;;;;;;;;15.10;96.00;;;;;;5045907;28;19940;-74
2022/10/28 10:16:14;;;;;;;;;;;15.10;96.00;;;;;;5040155;28;19928;-74
2022/10/28 10:18:45;;;;;;;;;;;15.10;96.00;;;;;;5045890;28;19928;-75
2022/10/28 10:21:13;;;;;;;;;;;15.10;96.00;;;;;;5040967;28;19935;-75
2022/10/28 10:23:39;;;;;;;;;;;15.10;95.90;;;;;;5045505;28;19929;-74
2022/10/28 10:26:07;;;;;;;;;;;15.10;95.90;;;;;;5041445;28;19929;-75
2022/10/28 10:28:36;;;;;;;;;;;15.20;95.90;;;;;;5040551;28;19936;-73
2022/10/28 10:31:03;;;;;;;;;;;15.20;95.90;;;;;;5045296;28;19929;-74
2022/10/28 10:33:33;;;;;;;;;;;15.20;95.90;;;;;;5045604;28;19933;-73
2022/10/28 10:36:01;;;;;;;;;;;15.30;95.90;;;;;;5041868;28;20403;-74
2022/10/28 10:38:29;;;;;;;;;;;15.30;95.80;;;;;;5044215;28;19929;-74
2022/10/28 10:40:55;;;;;;;;;;;15.30;95.80;;;;;;5043352;28;19925;-74
2022/10/28 10:43:23;;;;;;;;;;;15.30;95.80;;;;;;5039915;28;19939;-74
2022/10/28 10:45:51;;;;;;;;;;;15.40;95.80;;;;;;5034416;28;19932;-75
2022/10/28 10:48:18;;;;;;;;;;;15.40;95.80;;;;;;5045298;28;19935;-74
2022/10/28 10:50:46;;;;;;;;;;;15.40;95.80;;;;;;5041696;28;19924;-74
2022/10/28 10:53:18;;;;;;;;;;;15.40;96.00;;;;;;5044734;28;20270;-73
2022/10/28 10:55:48;;;;;;;;;;;15.40;95.70;;;;;;5039985;28;19932;-74
2022/10/28 10:58:16;;;;;;;;;;;15.50;95.80;;;;;;5039247;28;19955;-74
2022/10/28 11:00:45;;;;;;;;;;;15.50;96.10;;;;;;5041725;28;19952;-74
2022/10/28 11:03:16;;;;;;;;;;;15.50;95.80;;;;;;5040649;28;20297;-74
2022/10/28 11:05:49;;;;;;;;;;;15.60;95.70;;;;;;5038614;28;19989;-73
2022/10/28 11:08:25;;;;;;;;;;;15.60;95.70;;;;;;5042142;28;19929;-74
2022/10/28 11:11:02;;;;;;;;;;;15.60;95.60;;;;;;5037124;28;19932;-75
2022/10/28 11:13:29;;;;;;;;;;;15.70;95.60;;;;;;5043558;28;19929;-74
2022/10/28 11:15:59;;;;;;;;;;;15.70;95.50;;;;;;5040020;28;19947;-75
2022/10/28 11:18:28;;;;;;;;;;;15.80;95.50;;;;;;5042135;28;19924;-73
2022/10/28 11:21:00;;;;;;;;;;;15.90;95.50;;;;;;5039925;28;19931;-74
2022/10/28 11:23:30;;;;;;;;;;;15.90;95.30;;;;;;5044064;28;19940;-74
2022/10/28 11:26:00;;;;;;;;;;;16.00;95.20;;;;;;5036714;28;19936;-74
2022/10/28 11:28:32;;;;;;;;;;;16.10;95.10;;;;;;5039901;28;19925;-73
2022/10/28 11:31:02;;;;;;;;;;;16.20;95.00;;;;;;5042120;28;19929;-75
2022/10/28 11:33:31;;;;;;;;;;;16.20;94.90;;;;;;5039232;28;20796;-74
2022/10/28 11:36:06;;;;;;;;;;;16.30;94.80;;;;;;5036938;28;19953;-75
2022/10/28 11:38:53;;;;;;;;;;;16.30;94.70;;;;;;5044171;28;19932;-75
2022/10/28 11:41:24;;;;;;;;;;;16.40;94.50;;;;;;5039200;28;19924;-75
2022/10/28 11:43:52;;;;;;;;;;;16.50;94.50;;;;;;5040691;28;19925;-75
2022/10/28 11:46:23;;;;;;;;;;;16.50;94.40;;;;;;5042499;28;19930;-75
2022/10/28 11:48:58;;;;;;;;;;;16.60;94.30;;;;;;5041714;28;19933;-75
2022/10/28 11:51:32;;;;;;;;;;;16.60;94.30;;;;;;5038137;28;20664;-74
2022/10/28 11:54:08;;;;;;;;;;;16.60;94.20;;;;;;5041369;28;19932;-75
2022/10/28 11:56:36;;;;;;;;;;;16.70;94.30;;;;;;5038570;28;19929;-75
2022/10/28 11:59:12;;;;;;;;;;;16.70;94.30;;;;;;5035623;28;19940;-75
2022/10/28 12:01:48;;;;;;;;;;;16.70;94.30;;;;;;5039004;28;19939;-74
2022/10/28 12:04:22;;;;;;;;;;;16.80;94.30;;;;;;5042389;28;19928;-74
2022/10/28 12:07:03;;;;;;;;;;;16.80;94.30;;;;;;5040519;28;20854;-75
2022/10/28 12:09:35;;;;;;;;;;;16.80;94.30;;;;;;5040779;28;19936;-75
2022/10/28 12:12:08;;;;;;;;;;;16.80;94.30;;;;;;5036454;28;19929;-74
2022/10/28 12:14:39;;;;;;;;;;;16.90;94.30;;;;;;5042995;28;19932;-74
2022/10/28 12:17:11;;;;;;;;;;;16.90;94.30;;;;;;5038579;28;19928;-74
2022/10/28 12:19:42;;;;;;;;;;;17.00;94.30;;;;;;5042257;28;19928;-74
2022/10/28 12:22:12;;;;;;;;;;;16.90;94.30;;;;;;5039343;28;19932;-75
2022/10/28 12:24:43;;;;;;;;;;;17.00;94.20;;;;;;5042616;28;19937;-75
2022/10/28 12:27:12;;;;;;;;;;;17.00;94.20;;;;;;5038389;28;20403;-75
2022/10/28 12:29:41;;;;;;;;;;;17.10;94.10;;;;;;5040697;28;19976;-75
2022/10/28 12:32:08;;;;;;;;;;;17.10;94.10;;;;;;5036808;28;19942;-76
2022/10/28 12:34:38;;;;;;;;;;;17.20;94.00;;;;;;5041396;28;19929;-74
2022/10/28 12:37:07;;;;;;;;;;;17.30;94.00;;;;;;5041704;28;19951;-75
2022/10/28 12:39:36;;;;;;;;;;;17.40;93.80;;;;;;5041659;28;19935;-75
2022/10/28 12:42:09;;;;;;;;;;;17.50;93.70;;;;;;5039607;28;19933;-75
2022/10/28 12:44:37;;;;;;;;;;;17.50;93.50;;;;;;5040332;28;19929;-75
2022/10/28 12:47:06;;;;;;;;;;;17.60;93.30;;;;;;5038721;28;20400;-68
2022/10/28 12:49:41;;;;;;;;;;;17.70;93.20;;;;;;5033008;28;19936;-67
2022/10/28 12:52:13;;;;;;;;;;;17.80;93.20;;;;;;5042589;28;19932;-68
2022/10/28 12:54:43;;;;;;;;;;;17.90;93.00;;;;;;5044192;28;19933;-68
2022/10/28 12:57:12;;;;;;;;;;;17.90;92.90;;;;;;5040397;28;20392;-68
2022/10/28 12:59:42;;;;;;;;;;;18.00;92.70;;;;;;5038626;28;20420;-69
2022/10/28 13:02:13;;;;;;;;;;;18.10;92.60;;;;;;5038839;28;20215;-68
2022/10/28 13:04:40;;;;;;;;;;;18.20;92.50;;;;;;5039922;28;19929;-67
2022/10/28 13:07:16;;;;;;;;;;;18.20;92.50;;;;;;5036613;28;20395;-68
2022/10/28 13:09:46;;;;;;;;;;;18.20;92.50;;;;;;5044532;28;19928;-72
2022/10/28 13:12:31;;;;;;;;;;;18.30;92.40;;;;;;5035306;28;19929;-68
2022/10/28 13:15:05;;;;;;;;;;;18.40;92.40;;;;;;5017552;28;19933;-68
2022/10/28 13:17:37;;;;;;;;;;;18.40;92.30;;;;;;5043487;28;19940;-69
2022/10/28 13:20:14;;;;;;;;;;;18.50;92.20;;;;;;5037678;28;19929;-69
2022/10/28 13:22:49;;;;;;;;;;;18.50;92.20;;;;;;5041194;28;19929;-68
2022/10/28 13:25:24;;;;;;;;;;;18.50;92.10;;;;;;5041589;28;19979;-68
2022/10/28 13:27:55;;;;;;;;;;;18.60;92.10;;;;;;5040499;28;19932;-70
2022/10/28 13:30:22;;;;;;;;;;;18.70;92.60;;;;;;5043989;28;19936;-69
2022/10/28 13:32:52;;;;;;;;;;;18.90;93.50;;;;;;5041725;28;19933;-69
2022/10/28 13:35:21;;;;;;;;;;;19.10;92.90;;;;;;5041202;28;19965;-69
2022/10/28 13:37:49;;;;;;;;;;;19.30;92.30;;;;;;5045826;28;20028;-71
2022/10/28 13:40:23;;;;;;;;;;;19.40;91.90;;;;;;5044761;28;19933;-69
2022/10/28 13:42:49;;;;;;;;;;;19.50;91.60;;;;;;5040202;28;19928;-69
2022/10/28 13:45:34;;;;;;;;;;;19.70;91.40;;;;;;5039956;28;20416;-69
2022/10/28 13:48:15;;;;;;;;;;;19.80;91.20;;;;;;5034446;28;19929;-69
2022/10/28 13:50:43;;;;;;;;;;;19.90;91.00;;;;;;5043547;28;20102;-69
2022/10/28 13:53:41;;;;;;;;;;;19.90;90.80;;;;;;5041463;28;19933;-69
2022/10/28 13:56:19;;;;;;;;;;;20.00;90.70;;;;;;5044004;28;19975;-70
2022/10/28 13:58:50;;;;;;;;;;;20.10;90.60;;;;;;5035428;28;20018;-69
2022/10/28 14:01:37;;;;;;;;;;;20.10;90.60;;;;;;5044450;28;19933;-69
2022/10/28 14:04:04;;;;;;;;;;;20.20;90.60;;;;;;5044395;28;20570;-71
2022/10/28 14:06:33;;;;;;;;;;;20.20;90.60;;;;;;5043423;28;20408;-70
2022/10/28 14:08:59;;;;;;;;;;;20.20;90.60;;;;;;5043404;28;19933;-70
2022/10/28 14:11:28;;;;;;;;;;;20.20;90.70;;;;;;5043146;28;19929;-69
2022/10/28 14:13:56;;;;;;;;;;;20.20;90.70;;;;;;5037004;28;19935;-68
2022/10/28 14:16:24;;;;;;;;;;;20.20;90.70;;;;;;5044137;28;20475;-68
2022/10/28 14:18:53;;;;;;;;;;;20.20;90.70;;;;;;5041879;28;19971;-69
2022/10/28 14:21:20;;;;;;;;;;;20.20;90.80;;;;;;5043380;28;19940;-70
2022/10/28 14:24:08;;;;;;;;;;;20.20;90.80;;;;;;5044695;28;19937;-68
2022/10/28 14:26:53;;;;;;;;;;;20.20;90.90;;;;;;5042911;28;21503;-69